createdAt,value
2018-02-27T00:01:11.980Z,0
2018-02-27T00:11:11.905Z,0
2018-02-27T00:21:11.916Z,0
2018-02-27T00:31:11.882Z,0
2018-02-27T00:41:11.881Z,0
2018-02-27T00:51:11.961Z,0
2018-02-27T01:01:12.197Z,0
2018-02-27T01:11:11.901Z,0
2018-02-27T01:21:11.850Z,0
2018-02-27T01:31:11.909Z,0
2018-02-27T01:41:11.910Z,0
2018-02-27T01:51:11.859Z,0
2018-02-27T02:01:11.929Z,0
2018-02-27T02:11:11.906Z,0
2018-02-27T02:21:11.865Z,0
2018-02-27T02:31:11.949Z,0
2018-02-27T02:41:11.907Z,0
2018-02-27T02:51:11.837Z,0
2018-02-27T03:01:11.780Z,0
2018-02-27T03:11:11.833Z,0
2018-02-27T03:21:11.892Z,0
2018-02-27T03:31:11.908Z,0
2018-02-27T03:41:11.817Z,0
2018-02-27T03:51:11.794Z,0
2018-02-27T04:01:11.903Z,0
2018-02-27T04:11:11.808Z,0
2018-02-27T04:21:11.745Z,0
2018-02-27T04:31:11.841Z,0
2018-02-27T04:41:11.803Z,0
2018-02-27T04:51:11.731Z,0
2018-02-27T05:01:11.776Z,0
2018-02-27T05:11:11.735Z,0
2018-02-27T05:21:11.765Z,0
2018-02-27T05:31:11.814Z,0
2018-02-27T05:41:11.715Z,0
2018-02-27T05:51:11.901Z,0
2018-02-27T06:01:11.821Z,0
2018-02-27T06:11:11.795Z,0
2018-02-27T06:21:11.812Z,5
2018-02-27T06:31:11.764Z,10
2018-02-27T06:41:11.747Z,15
2018-02-27T06:51:11.722Z,25
2018-02-27T07:01:11.710Z,30
2018-02-27T07:11:11.700Z,40
2018-02-27T07:21:11.976Z,50
2018-02-27T07:31:11.752Z,55
2018-02-27T07:41:11.703Z,60
2018-02-27T07:51:11.822Z,85
2018-02-27T08:01:11.684Z,85
2018-02-27T08:11:11.714Z,75
2018-02-27T08:21:11.765Z,65
2018-02-27T08:31:11.696Z,75
2018-02-27T08:41:12.156Z,80
2018-02-27T08:51:11.798Z,85
2018-02-27T09:01:11.742Z,90
2018-02-27T09:11:12.305Z,90
2018-02-27T09:21:11.844Z,105
2018-02-27T09:31:11.838Z,110
2018-02-27T09:41:11.647Z,145
2018-02-27T09:51:11.871Z,185
2018-02-27T10:01:11.667Z,155
2018-02-27T10:11:11.757Z,155
2018-02-27T10:21:11.743Z,170
2018-02-27T10:31:11.643Z,165
2018-02-27T10:41:11.651Z,140
2018-02-27T10:51:11.663Z,165
2018-02-27T11:01:11.666Z,175
2018-02-27T11:11:11.681Z,150
2018-02-27T11:21:11.648Z,170
2018-02-27T11:31:11.627Z,150
2018-02-27T11:41:11.620Z,155
2018-02-27T11:51:11.625Z,150
2018-02-27T12:01:11.688Z,175
2018-02-27T12:11:11.618Z,140
2018-02-27T12:21:11.640Z,145
2018-02-27T12:31:11.654Z,185
2018-02-27T12:41:11.686Z,175
2018-02-27T12:51:11.683Z,185
2018-02-27T13:01:11.730Z,160
2018-02-27T13:11:11.628Z,115
2018-02-27T13:21:11.721Z,95
2018-02-27T13:31:11.623Z,100
2018-02-27T13:41:11.642Z,125
2018-02-27T13:51:11.661Z,115
2018-02-27T14:01:11.702Z,140
2018-02-27T14:11:11.606Z,150
2018-02-27T14:21:11.635Z,125
2018-02-27T14:31:11.615Z,105
2018-02-27T14:41:11.577Z,120
2018-02-27T14:51:11.716Z,85
2018-02-27T15:01:11.579Z,90
2018-02-27T15:11:11.607Z,95
2018-02-27T15:21:11.626Z,80
2018-02-27T15:31:11.712Z,70
2018-02-27T15:41:11.826Z,65
2018-02-27T15:51:11.626Z,55
2018-02-27T16:01:11.662Z,50
2018-02-27T16:11:11.633Z,45
2018-02-27T16:21:11.647Z,35
2018-02-27T16:31:11.660Z,20
2018-02-27T16:41:11.605Z,15
2018-02-27T16:51:11.654Z,10
2018-02-27T17:01:11.573Z,5
2018-02-27T17:11:11.618Z,0
2018-02-27T17:21:11.586Z,0
2018-02-27T17:31:11.802Z,0
2018-02-27T17:41:11.603Z,0
2018-02-27T17:51:11.584Z,0
2018-02-27T18:01:11.544Z,0
2018-02-27T18:11:11.603Z,0
2018-02-27T18:21:11.586Z,0
2018-02-27T18:31:11.568Z,0
2018-02-27T18:41:11.551Z,0
2018-02-27T18:51:11.507Z,0
2018-02-27T19:01:27.475Z,0
2018-02-27T19:11:11.586Z,0
2018-02-27T19:21:15.049Z,0
2018-02-27T19:31:11.648Z,0
2018-02-27T19:41:11.604Z,0
2018-02-27T19:51:11.561Z,0
2018-02-27T20:01:13.174Z,0
2018-02-27T20:11:11.788Z,0
2018-02-27T20:21:11.507Z,0
2018-02-27T20:31:11.681Z,0
2018-02-27T20:41:11.565Z,0
2018-02-27T20:51:11.583Z,0
2018-02-27T21:01:11.648Z,0
2018-02-27T21:11:11.510Z,0
2018-02-27T21:21:11.418Z,0
2018-02-27T21:31:11.572Z,0
2018-02-27T21:41:11.517Z,0
2018-02-27T21:51:11.457Z,0
2018-02-27T22:01:11.619Z,0
2018-02-27T22:13:19.505Z,0
2018-02-27T22:21:11.408Z,0
2018-02-27T22:31:11.507Z,0
2018-02-27T22:41:11.416Z,0
2018-02-27T22:51:11.359Z,0
2018-02-27T23:01:11.452Z,0
2018-02-27T23:11:11.393Z,0
2018-02-27T23:21:11.466Z,0
2018-02-27T23:31:11.476Z,0
2018-02-27T23:41:11.413Z,0
2018-02-27T23:51:11.481Z,0
